sensor_id;sensor_type;location;lat;lon;timestamp;P1;durP1;ratioP1;P2;durP2;ratioP2
54265;SDS011;40836;39.770;2.714;2022-10-31T00:03:48;17.05;;;11.57;;
54265;SDS011;40836;39.770;2.714;2022-10-31T00:06:14;20.45;;;11.93;;
54265;SDS011;40836;39.770;2.714;2022-10-31T00:08:43;24.83;;;12.52;;
54265;SDS011;40836;39.770;2.714;2022-10-31T00:11:10;19.92;;;12.20;;
54265;SDS011;40836;39.770;2.714;2022-10-31T00:13:36;22.77;;;12.65;;
54265;SDS011;40836;39.770;2.714;2022-10-31T00:16:01;21.20;;;13.55;;
54265;SDS011;40836;39.770;2.714;2022-10-31T00:18:26;25.58;;;12.98;;
54265;SDS011;40836;39.770;2.714;2022-10-31T00:20:59;21.05;;;12.00;;
54265;SDS011;40836;39.770;2.714;2022-10-31T00:23:28;22.13;;;13.35;;
54265;SDS011;40836;39.770;2.714;2022-10-31T00:25:54;25.88;;;13.27;;
54265;SDS011;40836;39.770;2.714;2022-10-31T00:28:25;18.55;;;13.05;;
54265;SDS011;40836;39.770;2.714;2022-10-31T00:30:50;20.52;;;12.07;;
54265;SDS011;40836;39.770;2.714;2022-10-31T00:33:16;22.02;;;12.05;;
54265;SDS011;40836;39.770;2.714;2022-10-31T00:35:41;22.13;;;12.80;;
54265;SDS011;40836;39.770;2.714;2022-10-31T00:38:07;23.60;;;11.95;;
54265;SDS011;40836;39.770;2.714;2022-10-31T00:40:32;18.70;;;12.25;;
54265;SDS011;40836;39.770;2.714;2022-10-31T00:42:57;22.60;;;12.73;;
54265;SDS011;40836;39.770;2.714;2022-10-31T00:45:23;19.20;;;11.95;;
54265;SDS011;40836;39.770;2.714;2022-10-31T00:47:48;19.45;;;12.27;;
54265;SDS011;40836;39.770;2.714;2022-10-31T00:50:14;23.38;;;12.18;;
54265;SDS011;40836;39.770;2.714;2022-10-31T00:52:39;23.27;;;12.10;;
54265;SDS011;40836;39.770;2.714;2022-10-31T00:55:05;21.30;;;11.88;;
54265;SDS011;40836;39.770;2.714;2022-10-31T00:57:30;18.48;;;11.90;;
54265;SDS011;40836;39.770;2.714;2022-10-31T00:59:56;18.90;;;11.95;;
54265;SDS011;40836;39.770;2.714;2022-10-31T01:02:21;18.95;;;12.15;;
54265;SDS011;40836;39.770;2.714;2022-10-31T01:04:47;22.63;;;11.73;;
54265;SDS011;40836;39.770;2.714;2022-10-31T01:07:12;18.83;;;11.68;;
54265;SDS011;40836;39.770;2.714;2022-10-31T01:09:39;22.95;;;12.43;;
54265;SDS011;40836;39.770;2.714;2022-10-31T01:12:04;19.75;;;12.63;;
54265;SDS011;40836;39.770;2.714;2022-10-31T01:14:30;23.45;;;12.48;;
54265;SDS011;40836;39.770;2.714;2022-10-31T01:16:55;19.52;;;11.80;;
54265;SDS011;40836;39.770;2.714;2022-10-31T01:19:21;17.60;;;11.38;;
54265;SDS011;40836;39.770;2.714;2022-10-31T01:21:46;21.90;;;12.35;;
54265;SDS011;40836;39.770;2.714;2022-10-31T01:24:11;21.80;;;12.68;;
54265;SDS011;40836;39.770;2.714;2022-10-31T01:26:37;18.05;;;12.15;;
54265;SDS011;40836;39.770;2.714;2022-10-31T01:29:04;18.70;;;11.60;;
54265;SDS011;40836;39.770;2.714;2022-10-31T01:31:34;21.15;;;12.00;;
54265;SDS011;40836;39.770;2.714;2022-10-31T01:34:01;18.08;;;12.07;;
54265;SDS011;40836;39.770;2.714;2022-10-31T01:36:28;16.55;;;11.73;;
54265;SDS011;40836;39.770;2.714;2022-10-31T01:38:57;20.23;;;12.88;;
54265;SDS011;40836;39.770;2.714;2022-10-31T01:41:26;16.60;;;11.95;;
54265;SDS011;40836;39.770;2.714;2022-10-31T01:43:57;18.73;;;11.57;;
54265;SDS011;40836;39.770;2.714;2022-10-31T01:46:44;17.15;;;12.02;;
54265;SDS011;40836;39.770;2.714;2022-10-31T01:49:31;20.17;;;12.25;;
54265;SDS011;40836;39.770;2.714;2022-10-31T01:52:01;17.17;;;12.07;;
54265;SDS011;40836;39.770;2.714;2022-10-31T01:54:31;19.10;;;12.07;;
54265;SDS011;40836;39.770;2.714;2022-10-31T01:57:01;21.17;;;12.68;;
54265;SDS011;40836;39.770;2.714;2022-10-31T01:59:29;19.42;;;12.02;;
54265;SDS011;40836;39.770;2.714;2022-10-31T02:01:58;20.77;;;12.18;;
54265;SDS011;40836;39.770;2.714;2022-10-31T02:04:24;20.75;;;12.38;;
54265;SDS011;40836;39.770;2.714;2022-10-31T02:06:53;18.65;;;12.52;;
54265;SDS011;40836;39.770;2.714;2022-10-31T02:09:23;18.48;;;13.00;;
54265;SDS011;40836;39.770;2.714;2022-10-31T02:11:51;20.92;;;12.55;;
54265;SDS011;40836;39.770;2.714;2022-10-31T02:14:21;20.98;;;11.70;;
54265;SDS011;40836;39.770;2.714;2022-10-31T02:16:48;19.83;;;12.23;;
54265;SDS011;40836;39.770;2.714;2022-10-31T02:19:15;21.88;;;12.15;;
54265;SDS011;40836;39.770;2.714;2022-10-31T02:27:02;20.00;;;12.32;;
54265;SDS011;40836;39.770;2.714;2022-10-31T02:34:58;19.55;;;12.23;;
54265;SDS011;40836;39.770;2.714;2022-10-31T02:37:34;18.75;;;12.02;;
54265;SDS011;40836;39.770;2.714;2022-10-31T02:40:28;22.05;;;12.57;;
54265;SDS011;40836;39.770;2.714;2022-10-31T02:47:53;20.70;;;12.40;;
54265;SDS011;40836;39.770;2.714;2022-10-31T02:50:22;26.30;;;12.93;;
54265;SDS011;40836;39.770;2.714;2022-10-31T02:52:53;23.38;;;14.13;;
54265;SDS011;40836;39.770;2.714;2022-10-31T02:57:50;27.13;;;13.00;;
54265;SDS011;40836;39.770;2.714;2022-10-31T03:00:19;16.40;;;12.45;;
54265;SDS011;40836;39.770;2.714;2022-10-31T03:08:07;17.85;;;12.40;;
54265;SDS011;40836;39.770;2.714;2022-10-31T03:15:55;21.60;;;12.70;;
54265;SDS011;40836;39.770;2.714;2022-10-31T03:18:55;19.88;;;12.98;;
54265;SDS011;40836;39.770;2.714;2022-10-31T03:23:58;17.02;;;11.10;;
54265;SDS011;40836;39.770;2.714;2022-10-31T03:26:26;21.67;;;11.88;;
54265;SDS011;40836;39.770;2.714;2022-10-31T03:28:57;19.60;;;12.35;;
54265;SDS011;40836;39.770;2.714;2022-10-31T03:31:27;20.58;;;12.30;;
54265;SDS011;40836;39.770;2.714;2022-10-31T03:33:56;18.80;;;12.00;;
54265;SDS011;40836;39.770;2.714;2022-10-31T03:36:24;17.23;;;12.55;;
54265;SDS011;40836;39.770;2.714;2022-10-31T03:38:52;20.75;;;12.77;;
54265;SDS011;40836;39.770;2.714;2022-10-31T03:41:19;18.70;;;11.90;;
54265;SDS011;40836;39.770;2.714;2022-10-31T03:44:00;17.77;;;11.90;;
54265;SDS011;40836;39.770;2.714;2022-10-31T03:46:28;17.55;;;11.68;;
54265;SDS011;40836;39.770;2.714;2022-10-31T03:48:54;16.42;;;11.52;;
54265;SDS011;40836;39.770;2.714;2022-10-31T03:51:28;19.55;;;12.57;;
54265;SDS011;40836;39.770;2.714;2022-10-31T03:54:33;22.50;;;12.15;;
54265;SDS011;40836;39.770;2.714;2022-10-31T03:57:01;18.42;;;12.13;;
54265;SDS011;40836;39.770;2.714;2022-10-31T03:59:34;17.38;;;11.95;;
54265;SDS011;40836;39.770;2.714;2022-10-31T04:02:09;18.90;;;12.40;;
54265;SDS011;40836;39.770;2.714;2022-10-31T04:04:39;19.13;;;12.00;;
54265;SDS011;40836;39.770;2.714;2022-10-31T04:07:05;22.65;;;12.15;;
54265;SDS011;40836;39.770;2.714;2022-10-31T04:09:33;16.27;;;10.90;;
54265;SDS011;40836;39.770;2.714;2022-10-31T04:12:01;18.27;;;11.40;;
54265;SDS011;40836;39.770;2.714;2022-10-31T04:14:31;17.95;;;11.65;;
54265;SDS011;40836;39.770;2.714;2022-10-31T04:16:57;19.33;;;11.40;;
54265;SDS011;40836;39.770;2.714;2022-10-31T04:19:24;17.85;;;11.27;;
54265;SDS011;40836;39.770;2.714;2022-10-31T04:21:50;18.70;;;11.98;;
54265;SDS011;40836;39.770;2.714;2022-10-31T04:24:15;19.10;;;11.10;;
54265;SDS011;40836;39.770;2.714;2022-10-31T04:26:40;16.55;;;11.13;;
54265;SDS011;40836;39.770;2.714;2022-10-31T04:29:06;17.42;;;12.15;;
54265;SDS011;40836;39.770;2.714;2022-10-31T04:31:31;21.92;;;11.90;;
54265;SDS011;40836;39.770;2.714;2022-10-31T04:33:57;18.02;;;12.13;;
54265;SDS011;40836;39.770;2.714;2022-10-31T04:36:22;18.30;;;11.50;;
54265;SDS011;40836;39.770;2.714;2022-10-31T04:38:48;18.90;;;11.73;;
54265;SDS011;40836;39.770;2.714;2022-10-31T04:41:13;19.33;;;11.13;;
54265;SDS011;40836;39.770;2.714;2022-10-31T04:43:38;16.98;;;12.00;;
54265;SDS011;40836;39.770;2.714;2022-10-31T04:46:04;19.02;;;12.13;;
54265;SDS011;40836;39.770;2.714;2022-10-31T04:48:30;18.52;;;11.70;;
54265;SDS011;40836;39.770;2.714;2022-10-31T04:50:59;20.80;;;12.45;;
54265;SDS011;40836;39.770;2.714;2022-10-31T04:53:25;17.17;;;11.27;;
54265;SDS011;40836;39.770;2.714;2022-10-31T04:55:51;18.23;;;11.52;;
54265;SDS011;40836;39.770;2.714;2022-10-31T04:58:16;16.88;;;11.45;;
54265;SDS011;40836;39.770;2.714;2022-10-31T05:00:42;23.45;;;12.35;;
54265;SDS011;40836;39.770;2.714;2022-10-31T05:03:07;15.95;;;11.57;;
54265;SDS011;40836;39.770;2.714;2022-10-31T05:05:33;18.38;;;11.82;;
54265;SDS011;40836;39.770;2.714;2022-10-31T05:07:58;19.70;;;12.35;;
54265;SDS011;40836;39.770;2.714;2022-10-31T05:10:25;15.68;;;12.05;;
54265;SDS011;40836;39.770;2.714;2022-10-31T05:12:53;18.88;;;12.30;;
54265;SDS011;40836;39.770;2.714;2022-10-31T05:15:23;21.42;;;12.07;;
54265;SDS011;40836;39.770;2.714;2022-10-31T05:17:49;18.77;;;12.15;;
54265;SDS011;40836;39.770;2.714;2022-10-31T05:20:16;16.63;;;12.00;;
54265;SDS011;40836;39.770;2.714;2022-10-31T05:22:43;16.58;;;12.43;;
54265;SDS011;40836;39.770;2.714;2022-10-31T05:25:13;19.30;;;12.38;;
54265;SDS011;40836;39.770;2.714;2022-10-31T05:27:39;19.77;;;11.90;;
54265;SDS011;40836;39.770;2.714;2022-10-31T05:30:06;17.33;;;11.95;;
54265;SDS011;40836;39.770;2.714;2022-10-31T05:32:41;20.45;;;12.05;;
54265;SDS011;40836;39.770;2.714;2022-10-31T05:35:10;19.27;;;11.32;;
54265;SDS011;40836;39.770;2.714;2022-10-31T05:37:37;19.00;;;11.23;;
54265;SDS011;40836;39.770;2.714;2022-10-31T05:40:03;18.10;;;12.38;;
54265;SDS011;40836;39.770;2.714;2022-10-31T05:42:30;19.35;;;11.98;;
54265;SDS011;40836;39.770;2.714;2022-10-31T05:44:55;19.08;;;11.40;;
54265;SDS011;40836;39.770;2.714;2022-10-31T05:47:21;14.93;;;11.23;;
54265;SDS011;40836;39.770;2.714;2022-10-31T05:49:46;17.88;;;11.73;;
54265;SDS011;40836;39.770;2.714;2022-10-31T05:52:12;18.85;;;11.65;;
54265;SDS011;40836;39.770;2.714;2022-10-31T05:54:37;21.08;;;12.32;;
54265;SDS011;40836;39.770;2.714;2022-10-31T05:57:03;20.15;;;11.63;;
54265;SDS011;40836;39.770;2.714;2022-10-31T05:59:28;18.65;;;11.32;;
54265;SDS011;40836;39.770;2.714;2022-10-31T06:01:54;16.30;;;11.35;;
54265;SDS011;40836;39.770;2.714;2022-10-31T06:04:19;17.80;;;11.20;;
54265;SDS011;40836;39.770;2.714;2022-10-31T06:06:45;16.90;;;11.70;;
54265;SDS011;40836;39.770;2.714;2022-10-31T06:09:10;16.60;;;11.70;;
54265;SDS011;40836;39.770;2.714;2022-10-31T06:11:36;17.85;;;10.77;;
54265;SDS011;40836;39.770;2.714;2022-10-31T06:14:01;17.75;;;12.50;;
54265;SDS011;40836;39.770;2.714;2022-10-31T06:16:27;20.02;;;11.82;;
54265;SDS011;40836;39.770;2.714;2022-10-31T06:18:53;17.10;;;11.23;;
54265;SDS011;40836;39.770;2.714;2022-10-31T06:21:18;18.02;;;11.32;;
54265;SDS011;40836;39.770;2.714;2022-10-31T06:23:43;19.33;;;11.77;;
54265;SDS011;40836;39.770;2.714;2022-10-31T06:26:09;20.98;;;12.48;;
54265;SDS011;40836;39.770;2.714;2022-10-31T06:28:35;20.38;;;12.98;;
54265;SDS011;40836;39.770;2.714;2022-10-31T06:31:00;20.33;;;12.68;;
54265;SDS011;40836;39.770;2.714;2022-10-31T06:33:26;23.67;;;12.65;;
54265;SDS011;40836;39.770;2.714;2022-10-31T06:35:51;20.52;;;11.63;;
54265;SDS011;40836;39.770;2.714;2022-10-31T06:38:16;19.17;;;11.70;;
54265;SDS011;40836;39.770;2.714;2022-10-31T06:40:42;23.15;;;11.38;;
54265;SDS011;40836;39.770;2.714;2022-10-31T06:43:07;19.20;;;12.70;;
54265;SDS011;40836;39.770;2.714;2022-10-31T06:45:33;20.77;;;12.60;;
54265;SDS011;40836;39.770;2.714;2022-10-31T06:47:59;21.60;;;12.93;;
54265;SDS011;40836;39.770;2.714;2022-10-31T06:50:24;22.38;;;12.77;;
54265;SDS011;40836;39.770;2.714;2022-10-31T06:52:54;23.25;;;12.57;;
54265;SDS011;40836;39.770;2.714;2022-10-31T06:55:21;19.50;;;13.10;;
54265;SDS011;40836;39.770;2.714;2022-10-31T06:57:58;19.60;;;13.02;;
54265;SDS011;40836;39.770;2.714;2022-10-31T07:00:25;22.48;;;13.68;;
54265;SDS011;40836;39.770;2.714;2022-10-31T07:02:56;23.85;;;13.20;;
54265;SDS011;40836;39.770;2.714;2022-10-31T07:05:26;20.27;;;12.88;;
54265;SDS011;40836;39.770;2.714;2022-10-31T07:07:53;25.90;;;13.48;;
54265;SDS011;40836;39.770;2.714;2022-10-31T07:10:19;24.73;;;13.00;;
54265;SDS011;40836;39.770;2.714;2022-10-31T07:12:45;21.02;;;13.85;;
54265;SDS011;40836;39.770;2.714;2022-10-31T07:15:11;18.92;;;13.38;;
54265;SDS011;40836;39.770;2.714;2022-10-31T07:17:36;23.25;;;13.98;;
54265;SDS011;40836;39.770;2.714;2022-10-31T07:20:02;21.33;;;13.50;;
54265;SDS011;40836;39.770;2.714;2022-10-31T07:22:34;22.17;;;13.55;;
54265;SDS011;40836;39.770;2.714;2022-10-31T07:25:00;20.90;;;13.85;;
54265;SDS011;40836;39.770;2.714;2022-10-31T07:27:26;27.55;;;13.75;;
54265;SDS011;40836;39.770;2.714;2022-10-31T07:29:52;21.25;;;13.88;;
54265;SDS011;40836;39.770;2.714;2022-10-31T07:32:17;22.02;;;13.50;;
54265;SDS011;40836;39.770;2.714;2022-10-31T07:34:42;24.58;;;13.85;;
54265;SDS011;40836;39.770;2.714;2022-10-31T07:37:08;18.33;;;13.60;;
54265;SDS011;40836;39.770;2.714;2022-10-31T07:39:33;20.13;;;13.73;;
54265;SDS011;40836;39.770;2.714;2022-10-31T07:41:59;21.65;;;14.35;;
54265;SDS011;40836;39.770;2.714;2022-10-31T07:44:24;23.50;;;14.23;;
54265;SDS011;40836;39.770;2.714;2022-10-31T07:46:50;20.75;;;14.73;;
54265;SDS011;40836;39.770;2.714;2022-10-31T07:49:15;30.08;;;15.50;;
54265;SDS011;40836;39.770;2.714;2022-10-31T07:51:41;27.10;;;15.43;;
54265;SDS011;40836;39.770;2.714;2022-10-31T07:54:06;22.60;;;15.63;;
54265;SDS011;40836;39.770;2.714;2022-10-31T07:56:32;30.33;;;17.45;;
54265;SDS011;40836;39.770;2.714;2022-10-31T07:58:57;32.03;;;18.80;;
54265;SDS011;40836;39.770;2.714;2022-10-31T08:01:23;30.05;;;19.65;;
54265;SDS011;40836;39.770;2.714;2022-10-31T08:03:48;34.55;;;20.15;;
54265;SDS011;40836;39.770;2.714;2022-10-31T08:06:14;32.95;;;20.67;;
54265;SDS011;40836;39.770;2.714;2022-10-31T08:08:39;44.00;;;23.67;;
54265;SDS011;40836;39.770;2.714;2022-10-31T08:11:05;42.90;;;25.15;;
54265;SDS011;40836;39.770;2.714;2022-10-31T08:13:30;52.30;;;29.35;;
54265;SDS011;40836;39.770;2.714;2022-10-31T08:15:57;45.65;;;28.05;;
54265;SDS011;40836;39.770;2.714;2022-10-31T08:18:28;47.33;;;27.80;;
54265;SDS011;40836;39.770;2.714;2022-10-31T08:20:53;46.03;;;26.77;;
54265;SDS011;40836;39.770;2.714;2022-10-31T08:23:19;43.95;;;27.45;;
54265;SDS011;40836;39.770;2.714;2022-10-31T08:25:44;46.08;;;27.75;;
54265;SDS011;40836;39.770;2.714;2022-10-31T08:28:13;50.22;;;26.38;;
54265;SDS011;40836;39.770;2.714;2022-10-31T08:30:39;40.88;;;24.98;;
54265;SDS011;40836;39.770;2.714;2022-10-31T08:35:36;40.35;;;23.88;;
54265;SDS011;40836;39.770;2.714;2022-10-31T08:38:02;43.35;;;26.55;;
54265;SDS011;40836;39.770;2.714;2022-10-31T08:40:29;43.83;;;24.63;;
54265;SDS011;40836;39.770;2.714;2022-10-31T08:42:56;36.10;;;22.05;;
54265;SDS011;40836;39.770;2.714;2022-10-31T08:45:26;46.65;;;26.00;;
54265;SDS011;40836;39.770;2.714;2022-10-31T08:47:56;42.15;;;23.13;;
54265;SDS011;40836;39.770;2.714;2022-10-31T08:50:22;39.03;;;23.92;;
54265;SDS011;40836;39.770;2.714;2022-10-31T08:52:49;35.42;;;23.17;;
54265;SDS011;40836;39.770;2.714;2022-10-31T08:55:14;37.33;;;24.55;;
54265;SDS011;40836;39.770;2.714;2022-10-31T08:57:39;36.25;;;23.25;;
54265;SDS011;40836;39.770;2.714;2022-10-31T09:00:05;40.67;;;21.98;;
54265;SDS011;40836;39.770;2.714;2022-10-31T09:02:31;37.38;;;21.33;;
54265;SDS011;40836;39.770;2.714;2022-10-31T09:04:57;32.17;;;20.83;;
54265;SDS011;40836;39.770;2.714;2022-10-31T09:07:22;39.78;;;23.23;;
54265;SDS011;40836;39.770;2.714;2022-10-31T09:09:48;39.55;;;25.05;;
54265;SDS011;40836;39.770;2.714;2022-10-31T09:12:13;36.10;;;21.95;;
54265;SDS011;40836;39.770;2.714;2022-10-31T09:14:38;39.38;;;23.25;;
54265;SDS011;40836;39.770;2.714;2022-10-31T09:17:04;40.88;;;22.70;;
54265;SDS011;40836;39.770;2.714;2022-10-31T09:19:29;31.83;;;18.45;;
54265;SDS011;40836;39.770;2.714;2022-10-31T09:21:55;32.55;;;16.65;;
54265;SDS011;40836;39.770;2.714;2022-10-31T09:24:21;35.60;;;19.40;;
54265;SDS011;40836;39.770;2.714;2022-10-31T09:26:46;20.38;;;11.88;;
54265;SDS011;40836;39.770;2.714;2022-10-31T09:29:11;22.08;;;11.70;;
54265;SDS011;40836;39.770;2.714;2022-10-31T09:31:37;23.80;;;12.50;;
54265;SDS011;40836;39.770;2.714;2022-10-31T09:34:02;25.35;;;13.40;;
54265;SDS011;40836;39.770;2.714;2022-10-31T09:36:28;24.77;;;14.77;;
54265;SDS011;40836;39.770;2.714;2022-10-31T09:38:54;29.75;;;16.27;;
54265;SDS011;40836;39.770;2.714;2022-10-31T09:41:31;28.95;;;15.32;;
54265;SDS011;40836;39.770;2.714;2022-10-31T09:47:02;29.73;;;13.55;;
54265;SDS011;40836;39.770;2.714;2022-10-31T09:49:41;32.72;;;15.57;;
54265;SDS011;40836;39.770;2.714;2022-10-31T09:52:20;21.90;;;9.60;;
54265;SDS011;40836;39.770;2.714;2022-10-31T09:57:29;24.88;;;12.65;;
54265;SDS011;40836;39.770;2.714;2022-10-31T09:59:58;25.13;;;9.90;;
54265;SDS011;40836;39.770;2.714;2022-10-31T10:02:43;20.50;;;9.52;;
54265;SDS011;40836;39.770;2.714;2022-10-31T10:05:14;17.92;;;10.02;;
54265;SDS011;40836;39.770;2.714;2022-10-31T10:08:05;22.00;;;9.15;;
54265;SDS011;40836;39.770;2.714;2022-10-31T10:16:19;18.13;;;10.15;;
54265;SDS011;40836;39.770;2.714;2022-10-31T10:21:58;27.83;;;14.07;;
54265;SDS011;40836;39.770;2.714;2022-10-31T10:30:23;22.33;;;9.70;;
54265;SDS011;40836;39.770;2.714;2022-10-31T10:32:58;19.52;;;9.38;;
54265;SDS011;40836;39.770;2.714;2022-10-31T10:41:11;24.00;;;8.98;;
54265;SDS011;40836;39.770;2.714;2022-10-31T10:43:42;24.45;;;9.80;;
54265;SDS011;40836;39.770;2.714;2022-10-31T10:54:46;24.48;;;8.80;;
54265;SDS011;40836;39.770;2.714;2022-10-31T10:57:21;21.60;;;9.05;;
54265;SDS011;40836;39.770;2.714;2022-10-31T10:59:53;20.90;;;9.27;;
54265;SDS011;40836;39.770;2.714;2022-10-31T11:02:19;23.75;;;11.07;;
54265;SDS011;40836;39.770;2.714;2022-10-31T11:04:51;21.70;;;10.32;;
54265;SDS011;40836;39.770;2.714;2022-10-31T11:07:18;29.00;;;15.35;;
54265;SDS011;40836;39.770;2.714;2022-10-31T11:09:44;30.30;;;14.95;;
54265;SDS011;40836;39.770;2.714;2022-10-31T11:12:19;33.78;;;14.23;;
54265;SDS011;40836;39.770;2.714;2022-10-31T11:14:51;30.65;;;16.85;;
54265;SDS011;40836;39.770;2.714;2022-10-31T11:19:58;25.98;;;15.73;;
54265;SDS011;40836;39.770;2.714;2022-10-31T11:22:45;33.47;;;17.20;;
54265;SDS011;40836;39.770;2.714;2022-10-31T11:25:21;31.15;;;15.73;;
54265;SDS011;40836;39.770;2.714;2022-10-31T11:30:30;27.55;;;15.05;;
54265;SDS011;40836;39.770;2.714;2022-10-31T11:33:12;24.33;;;9.55;;
54265;SDS011;40836;39.770;2.714;2022-10-31T11:35:43;21.30;;;11.40;;
54265;SDS011;40836;39.770;2.714;2022-10-31T11:38:12;19.85;;;10.32;;
54265;SDS011;40836;39.770;2.714;2022-10-31T11:40:50;22.83;;;9.80;;
54265;SDS011;40836;39.770;2.714;2022-10-31T11:43:21;27.08;;;9.55;;
54265;SDS011;40836;39.770;2.714;2022-10-31T11:45:48;16.83;;;9.40;;
54265;SDS011;40836;39.770;2.714;2022-10-31T11:48:15;20.67;;;9.00;;
54265;SDS011;40836;39.770;2.714;2022-10-31T11:50:46;22.00;;;9.23;;
54265;SDS011;40836;39.770;2.714;2022-10-31T11:53:17;22.00;;;9.43;;
54265;SDS011;40836;39.770;2.714;2022-10-31T11:55:45;23.75;;;9.00;;
54265;SDS011;40836;39.770;2.714;2022-10-31T11:58:21;17.63;;;9.57;;
54265;SDS011;40836;39.770;2.714;2022-10-31T12:00:49;22.00;;;9.65;;
54265;SDS011;40836;39.770;2.714;2022-10-31T12:06:03;21.48;;;8.98;;
54265;SDS011;40836;39.770;2.714;2022-10-31T12:08:34;22.55;;;9.90;;
54265;SDS011;40836;39.770;2.714;2022-10-31T12:22:03;22.50;;;9.02;;
54265;SDS011;40836;39.770;2.714;2022-10-31T12:41:13;20.05;;;9.15;;
54265;SDS011;40836;39.770;2.714;2022-10-31T12:43:48;26.25;;;10.02;;
54265;SDS011;40836;39.770;2.714;2022-10-31T12:52:20;18.58;;;8.75;;
54265;SDS011;40836;39.770;2.714;2022-10-31T13:00:13;21.00;;;9.10;;
54265;SDS011;40836;39.770;2.714;2022-10-31T13:05:29;16.35;;;8.23;;
54265;SDS011;40836;39.770;2.714;2022-10-31T13:13:15;22.38;;;9.40;;
54265;SDS011;40836;39.770;2.714;2022-10-31T13:15:56;25.92;;;9.90;;
54265;SDS011;40836;39.770;2.714;2022-10-31T13:18:27;19.17;;;8.98;;
54265;SDS011;40836;39.770;2.714;2022-10-31T13:20:53;23.63;;;9.35;;
54265;SDS011;40836;39.770;2.714;2022-10-31T13:25:56;22.05;;;9.02;;
54265;SDS011;40836;39.770;2.714;2022-10-31T13:30:52;18.60;;;8.95;;
54265;SDS011;40836;39.770;2.714;2022-10-31T13:33:29;22.33;;;10.13;;
54265;SDS011;40836;39.770;2.714;2022-10-31T13:38:46;22.13;;;10.27;;
54265;SDS011;40836;39.770;2.714;2022-10-31T13:41:22;20.75;;;9.65;;
54265;SDS011;40836;39.770;2.714;2022-10-31T13:46:45;23.27;;;10.20;;
54265;SDS011;40836;39.770;2.714;2022-10-31T13:54:56;24.50;;;11.13;;
54265;SDS011;40836;39.770;2.714;2022-10-31T13:57:26;19.52;;;11.88;;
54265;SDS011;40836;39.770;2.714;2022-10-31T14:02:49;24.75;;;13.90;;
54265;SDS011;40836;39.770;2.714;2022-10-31T14:05:33;19.67;;;12.63;;
54265;SDS011;40836;39.770;2.714;2022-10-31T14:08:00;23.27;;;12.85;;
54265;SDS011;40836;39.770;2.714;2022-10-31T14:10:29;20.40;;;12.73;;
54265;SDS011;40836;39.770;2.714;2022-10-31T14:15:30;19.25;;;11.88;;
54265;SDS011;40836;39.770;2.714;2022-10-31T14:20:42;19.15;;;12.82;;
54265;SDS011;40836;39.770;2.714;2022-10-31T14:26:17;19.75;;;12.50;;
54265;SDS011;40836;39.770;2.714;2022-10-31T14:28:43;18.95;;;12.80;;
54265;SDS011;40836;39.770;2.714;2022-10-31T14:52:29;20.00;;;13.18;;
54265;SDS011;40836;39.770;2.714;2022-10-31T14:54:56;21.58;;;12.70;;
54265;SDS011;40836;39.770;2.714;2022-10-31T14:57:28;17.83;;;13.07;;
54265;SDS011;40836;39.770;2.714;2022-10-31T15:00:04;22.42;;;13.10;;
54265;SDS011;40836;39.770;2.714;2022-10-31T15:05:26;21.10;;;12.38;;
54265;SDS011;40836;39.770;2.714;2022-10-31T15:07:54;23.10;;;13.15;;
54265;SDS011;40836;39.770;2.714;2022-10-31T15:12:46;25.33;;;14.13;;
54265;SDS011;40836;39.770;2.714;2022-10-31T15:15:13;41.90;;;21.30;;
54265;SDS011;40836;39.770;2.714;2022-10-31T15:17:48;34.80;;;19.05;;
54265;SDS011;40836;39.770;2.714;2022-10-31T15:20:19;24.42;;;11.65;;
54265;SDS011;40836;39.770;2.714;2022-10-31T15:22:46;24.67;;;13.82;;
54265;SDS011;40836;39.770;2.714;2022-10-31T15:25:17;41.17;;;19.27;;
54265;SDS011;40836;39.770;2.714;2022-10-31T15:27:43;40.33;;;18.65;;
54265;SDS011;40836;39.770;2.714;2022-10-31T15:30:22;28.17;;;14.23;;
54265;SDS011;40836;39.770;2.714;2022-10-31T15:32:50;28.25;;;15.55;;
54265;SDS011;40836;39.770;2.714;2022-10-31T15:35:23;36.58;;;19.50;;
54265;SDS011;40836;39.770;2.714;2022-10-31T15:37:53;39.42;;;21.38;;
54265;SDS011;40836;39.770;2.714;2022-10-31T15:40:22;21.75;;;14.30;;
54265;SDS011;40836;39.770;2.714;2022-10-31T15:42:53;23.95;;;11.60;;
54265;SDS011;40836;39.770;2.714;2022-10-31T15:45:26;18.40;;;10.68;;
54265;SDS011;40836;39.770;2.714;2022-10-31T15:47:55;22.35;;;10.48;;
54265;SDS011;40836;39.770;2.714;2022-10-31T15:50:28;32.33;;;17.35;;
54265;SDS011;40836;39.770;2.714;2022-10-31T15:53:00;25.50;;;12.88;;
54265;SDS011;40836;39.770;2.714;2022-10-31T15:55:29;20.80;;;11.68;;
54265;SDS011;40836;39.770;2.714;2022-10-31T15:58:01;27.33;;;11.52;;
54265;SDS011;40836;39.770;2.714;2022-10-31T16:03:03;27.20;;;12.25;;
54265;SDS011;40836;39.770;2.714;2022-10-31T16:05:47;22.50;;;10.52;;
54265;SDS011;40836;39.770;2.714;2022-10-31T16:10:55;20.88;;;11.23;;
54265;SDS011;40836;39.770;2.714;2022-10-31T16:13:27;23.25;;;10.95;;
54265;SDS011;40836;39.770;2.714;2022-10-31T16:15:56;22.50;;;12.02;;
54265;SDS011;40836;39.770;2.714;2022-10-31T16:18:25;21.90;;;11.68;;
54265;SDS011;40836;39.770;2.714;2022-10-31T16:20:53;29.08;;;12.75;;
54265;SDS011;40836;39.770;2.714;2022-10-31T16:23:21;24.08;;;13.43;;
54265;SDS011;40836;39.770;2.714;2022-10-31T16:25:49;29.88;;;14.32;;
54265;SDS011;40836;39.770;2.714;2022-10-31T16:28:18;25.08;;;14.27;;
54265;SDS011;40836;39.770;2.714;2022-10-31T16:30:44;26.58;;;14.23;;
54265;SDS011;40836;39.770;2.714;2022-10-31T16:33:27;25.05;;;14.35;;
54265;SDS011;40836;39.770;2.714;2022-10-31T16:35:58;24.15;;;13.00;;
54265;SDS011;40836;39.770;2.714;2022-10-31T16:38:25;25.67;;;13.38;;
54265;SDS011;40836;39.770;2.714;2022-10-31T16:40:51;26.83;;;14.23;;
54265;SDS011;40836;39.770;2.714;2022-10-31T16:43:17;23.90;;;13.75;;
54265;SDS011;40836;39.770;2.714;2022-10-31T16:45:46;23.33;;;14.45;;
54265;SDS011;40836;39.770;2.714;2022-10-31T16:48:13;21.63;;;14.45;;
54265;SDS011;40836;39.770;2.714;2022-10-31T16:50:41;27.85;;;17.13;;
54265;SDS011;40836;39.770;2.714;2022-10-31T16:53:08;24.20;;;15.95;;
54265;SDS011;40836;39.770;2.714;2022-10-31T16:55:46;24.25;;;15.43;;
54265;SDS011;40836;39.770;2.714;2022-10-31T16:58:33;22.80;;;15.93;;
54265;SDS011;40836;39.770;2.714;2022-10-31T17:01:06;22.42;;;15.55;;
54265;SDS011;40836;39.770;2.714;2022-10-31T17:03:32;23.23;;;14.18;;
54265;SDS011;40836;39.770;2.714;2022-10-31T17:05:57;24.90;;;14.25;;
54265;SDS011;40836;39.770;2.714;2022-10-31T17:08:23;22.73;;;13.32;;
54265;SDS011;40836;39.770;2.714;2022-10-31T17:10:50;23.40;;;13.40;;
54265;SDS011;40836;39.770;2.714;2022-10-31T17:13:18;23.48;;;13.95;;
54265;SDS011;40836;39.770;2.714;2022-10-31T17:15:46;22.30;;;13.80;;
54265;SDS011;40836;39.770;2.714;2022-10-31T17:18:15;26.35;;;14.20;;
54265;SDS011;40836;39.770;2.714;2022-10-31T17:20:41;22.65;;;14.63;;
54265;SDS011;40836;39.770;2.714;2022-10-31T17:23:08;24.10;;;14.80;;
54265;SDS011;40836;39.770;2.714;2022-10-31T17:25:38;23.83;;;15.13;;
54265;SDS011;40836;39.770;2.714;2022-10-31T17:28:05;19.40;;;14.85;;
54265;SDS011;40836;39.770;2.714;2022-10-31T17:30:31;29.70;;;16.05;;
54265;SDS011;40836;39.770;2.714;2022-10-31T17:32:58;21.13;;;14.30;;
54265;SDS011;40836;39.770;2.714;2022-10-31T17:35:24;23.52;;;15.27;;
54265;SDS011;40836;39.770;2.714;2022-10-31T17:37:49;25.67;;;15.90;;